createdAt,value
2023-05-21T00:00:30.626Z,51.27
2023-05-21T00:01:30.943Z,51.27
2023-05-21T00:02:29.768Z,51.95
2023-05-21T00:03:30.008Z,52.32
2023-05-21T00:04:29.851Z,52.68
2023-05-21T00:06:50.124Z,55.04
2023-05-21T00:07:49.850Z,56.01
2023-05-21T00:08:50.976Z,55.84
2023-05-21T00:11:08.781Z,55.08
2023-05-21T00:12:09.952Z,54.51
2023-05-21T00:13:08.878Z,54.50
2023-05-21T00:14:08.696Z,54.50
2023-05-21T00:15:08.600Z,54.06
2023-05-21T00:16:09.625Z,55.28
2023-05-21T00:17:08.707Z,56.25
2023-05-21T00:18:08.678Z,56.21
2023-05-21T00:19:08.654Z,55.48
2023-05-21T00:20:08.620Z,55.40
2023-05-21T00:21:08.573Z,55.40
2023-05-21T00:22:08.582Z,54.48
2023-05-21T00:23:09.543Z,53.92
2023-05-21T00:25:28.054Z,52.74
2023-05-21T00:26:29.323Z,52.50
2023-05-21T00:27:29.082Z,52.69
2023-05-21T00:28:29.048Z,53.36
2023-05-21T00:29:29.182Z,52.66
2023-05-21T00:30:29.042Z,53.25
2023-05-21T00:31:28.222Z,54.34
2023-05-21T00:32:29.009Z,54.87
2023-05-21T00:35:27.991Z,53.06
2023-05-21T00:36:27.959Z,52.67
2023-05-21T00:38:47.077Z,51.93
2023-05-21T00:39:47.364Z,51.84
2023-05-21T00:40:47.050Z,51.72
2023-05-21T00:41:48.075Z,52.04
2023-05-21T00:42:46.995Z,52.47
2023-05-21T00:45:07.599Z,53.15
2023-05-21T00:46:07.393Z,52.99
2023-05-21T00:48:26.633Z,52.66
2023-05-21T00:50:46.006Z,52.22
2023-05-21T00:51:46.717Z,51.67
2023-05-21T00:52:46.963Z,51.37
2023-05-21T00:53:46.732Z,51.94
2023-05-21T00:54:46.778Z,52.34
2023-05-21T00:55:46.651Z,52.07
2023-05-21T00:56:45.914Z,51.69
2023-05-21T00:57:45.602Z,51.91
2023-05-21T00:58:45.833Z,51.62
2023-05-21T00:59:46.623Z,51.21
2023-05-21T01:00:45.782Z,51.47
2023-05-21T01:01:45.990Z,51.13
2023-05-21T01:02:46.772Z,50.78
2023-05-21T01:03:45.761Z,50.75
2023-05-21T01:04:45.592Z,51.11
2023-05-21T01:07:04.988Z,53.27
2023-05-21T01:08:05.809Z,53.78
2023-05-21T01:11:24.425Z,55.85
2023-05-21T01:12:24.331Z,56.44
2023-05-21T01:13:25.493Z,57.27
2023-05-21T01:14:25.345Z,57.84
2023-05-21T01:15:25.268Z,57.95
2023-05-21T01:16:25.138Z,57.18
2023-05-21T01:17:25.143Z,57.42
2023-05-21T01:18:24.290Z,57.29
2023-05-21T01:19:24.209Z,56.62
2023-05-21T01:20:25.089Z,56.29
2023-05-21T01:21:25.293Z,56.23
2023-05-21T01:22:24.065Z,56.18
2023-05-21T01:23:24.288Z,55.49
2023-05-21T01:24:25.341Z,55.34
2023-05-21T01:25:24.032Z,55.23
2023-05-21T01:26:25.241Z,55.11
2023-05-21T01:27:25.189Z,55.15
2023-05-21T01:28:25.074Z,54.69
2023-05-21T01:30:43.586Z,53.76
2023-05-21T01:31:43.775Z,53.23
2023-05-21T01:32:43.748Z,52.76
2023-05-21T01:33:43.494Z,52.44
2023-05-21T01:34:43.503Z,52.33
2023-05-21T01:37:03.107Z,51.89
2023-05-21T01:38:03.271Z,51.80
2023-05-21T01:39:03.151Z,51.70
2023-05-21T01:40:02.997Z,51.98
2023-05-21T01:41:04.044Z,52.04
2023-05-21T01:42:03.058Z,52.69
2023-05-21T01:43:03.972Z,54.28
2023-05-21T01:44:04.182Z,55.10
2023-05-21T01:45:04.074Z,55.59
2023-05-21T01:46:03.180Z,55.59
2023-05-21T01:48:23.532Z,55.97
2023-05-21T01:49:23.206Z,55.70
2023-05-21T01:50:23.353Z,55.73
2023-05-21T01:51:24.144Z,55.77
2023-05-21T01:52:24.155Z,56.03
2023-05-21T01:53:23.074Z,55.96
2023-05-21T01:54:24.125Z,56.70
2023-05-21T01:55:24.133Z,56.70
2023-05-21T01:56:23.137Z,57.08
2023-05-21T01:58:42.611Z,56.19
2023-05-21T01:59:43.489Z,55.66
2023-05-21T02:00:43.692Z,55.00
2023-05-21T02:01:42.476Z,54.62
2023-05-21T02:02:42.413Z,54.56
2023-05-21T02:03:42.402Z,54.87
2023-05-21T02:06:01.761Z,55.29
2023-05-21T02:08:21.270Z,54.13
2023-05-21T02:12:40.563Z,55.13
2023-05-21T02:13:41.336Z,55.86
2023-05-21T02:14:40.569Z,56.92
2023-05-21T02:15:41.368Z,56.18
2023-05-21T02:16:40.374Z,56.02
2023-05-21T02:17:41.298Z,55.57
2023-05-21T02:18:41.249Z,55.23
2023-05-21T02:19:41.223Z,54.94
2023-05-21T02:20:40.273Z,54.81
2023-05-21T02:21:41.209Z,54.51
2023-05-21T02:22:41.226Z,54.49
2023-05-21T02:23:41.278Z,53.86
2023-05-21T02:25:59.400Z,54.06
2023-05-21T02:26:59.466Z,54.07
2023-05-21T02:27:59.339Z,53.80
2023-05-21T02:30:18.497Z,53.44
2023-05-21T02:31:18.432Z,53.33
2023-05-21T02:32:18.171Z,53.29
2023-05-21T02:34:37.775Z,54.47
2023-05-21T02:35:37.917Z,55.19
2023-05-21T02:36:37.710Z,55.76
2023-05-21T02:37:37.473Z,56.48
2023-05-21T02:41:16.637Z,57.21
2023-05-21T02:43:36.241Z,57.71
2023-05-21T02:47:14.217Z,60.51
2023-05-21T02:48:15.231Z,60.41
2023-05-21T02:49:15.061Z,59.83
2023-05-21T02:50:15.041Z,59.15
2023-05-21T02:51:14.255Z,58.33
2023-05-21T02:52:14.206Z,57.71
2023-05-21T02:53:15.168Z,57.65
2023-05-21T02:54:14.018Z,57.46
2023-05-21T02:55:14.168Z,57.30
2023-05-21T02:56:14.038Z,56.93
2023-05-21T02:58:40.481Z,58.15
2023-05-21T02:59:41.236Z,57.58
2023-05-21T03:00:40.420Z,57.11
2023-05-21T03:01:40.153Z,56.70
2023-05-21T03:02:40.229Z,56.69
2023-05-21T03:05:36.417Z,55.80
2023-05-21T03:06:37.146Z,55.47
2023-05-21T03:20:43.270Z,57.94
2023-05-21T03:21:43.017Z,58.27
2023-05-21T03:22:43.157Z,58.52
2023-05-21T03:25:02.510Z,59.48
2023-05-21T03:26:03.650Z,59.16
2023-05-21T03:27:02.434Z,59.04
2023-05-21T03:29:21.944Z,59.81
2023-05-21T03:30:23.157Z,59.77
2023-05-21T03:32:41.804Z,60.30
2023-05-21T03:35:19.709Z,59.70
2023-05-21T03:36:19.504Z,59.84
2023-05-21T03:37:20.717Z,60.57
2023-05-21T03:38:19.603Z,60.93
2023-05-21T03:39:19.408Z,61.27
2023-05-21T03:41:39.479Z,61.52
2023-05-21T03:42:40.524Z,61.42
2023-05-21T03:46:18.777Z,61.59
2023-05-21T03:47:19.389Z,61.86
2023-05-21T03:48:18.586Z,61.90
2023-05-21T03:49:19.348Z,60.71
2023-05-21T03:50:19.235Z,60.22
2023-05-21T03:51:18.264Z,59.70
2023-05-21T03:56:16.749Z,58.27
2023-05-21T03:57:17.961Z,59.10
2023-05-21T03:58:17.671Z,59.71
2023-05-21T03:59:16.702Z,59.72
2023-05-21T04:00:16.672Z,59.46
2023-05-21T04:01:16.616Z,58.55
2023-05-21T04:02:16.732Z,58.11
2023-05-21T04:03:16.836Z,58.13
2023-05-21T04:04:16.750Z,57.68
2023-05-21T04:05:16.615Z,57.50
2023-05-21T04:06:16.604Z,57.45
2023-05-21T04:09:36.834Z,58.91
2023-05-21T04:10:37.521Z,59.26
2023-05-21T04:12:55.579Z,58.92
2023-05-21T04:13:55.752Z,58.80
2023-05-21T04:14:55.626Z,58.38
2023-05-21T04:15:55.613Z,58.22
2023-05-21T04:16:55.533Z,58.18
2023-05-21T04:17:56.524Z,58.51
2023-05-21T04:18:55.742Z,58.77
2023-05-21T04:19:55.435Z,58.50
2023-05-21T04:20:55.617Z,58.30
2023-05-21T04:21:56.434Z,57.56
2023-05-21T04:24:14.830Z,56.83
2023-05-21T04:26:33.818Z,56.67
2023-05-21T04:27:33.612Z,56.58
2023-05-21T04:28:33.861Z,56.61
2023-05-21T04:29:33.652Z,58.41
2023-05-21T04:31:53.672Z,59.82
2023-05-21T04:34:12.599Z,59.49
2023-05-21T04:35:13.714Z,59.35
2023-05-21T04:36:13.254Z,58.95
2023-05-21T04:37:13.301Z,58.79
2023-05-21T04:38:12.379Z,58.83
2023-05-21T04:39:13.254Z,58.57
2023-05-21T04:40:12.255Z,58.19
2023-05-21T04:41:12.258Z,58.07
2023-05-21T04:42:13.475Z,57.79
2023-05-21T04:43:12.416Z,57.73
2023-05-21T04:44:12.215Z,57.42
2023-05-21T04:46:32.191Z,57.63
2023-05-21T04:47:32.852Z,58.07
2023-05-21T04:48:32.066Z,58.18
2023-05-21T04:49:31.784Z,58.72
2023-05-21T04:50:32.726Z,59.49
2023-05-21T04:51:32.749Z,59.69
2023-05-21T04:53:51.488Z,59.32
2023-05-21T04:54:52.348Z,58.97
2023-05-21T04:55:52.450Z,59.14
2023-05-21T04:56:51.238Z,58.62
2023-05-21T04:59:10.667Z,58.16
2023-05-21T05:00:10.505Z,57.89
2023-05-21T05:03:09.966Z,57.88
2023-05-21T05:04:10.058Z,58.09
2023-05-21T05:05:11.022Z,58.27
2023-05-21T05:06:10.736Z,58.11
2023-05-21T05:07:10.924Z,57.55
2023-05-21T05:08:11.430Z,57.59
2023-05-21T05:09:10.935Z,57.28
2023-05-21T05:10:09.987Z,57.60
2023-05-21T05:11:09.860Z,57.62
2023-05-21T05:12:09.958Z,57.88
2023-05-21T05:13:11.148Z,58.16
2023-05-21T05:14:09.976Z,58.73
2023-05-21T05:15:10.921Z,58.84
2023-05-21T05:16:11.024Z,59.43
2023-05-21T05:17:11.106Z,59.02
2023-05-21T05:18:10.097Z,59.48
2023-05-21T05:19:10.222Z,60.11
2023-05-21T05:20:10.076Z,59.77
2023-05-21T05:21:09.957Z,59.81
2023-05-21T05:22:13.341Z,59.87
2023-05-21T05:23:11.008Z,60.21
2023-05-21T05:25:29.590Z,61.21
2023-05-21T05:26:30.690Z,61.09
2023-05-21T05:27:29.584Z,61.26
2023-05-21T05:28:29.675Z,61.09
2023-05-21T05:32:08.457Z,61.54
2023-05-21T05:33:09.479Z,60.71
2023-05-21T05:34:09.364Z,60.66
2023-05-21T05:35:08.351Z,60.68
2023-05-21T05:37:28.099Z,63.11
2023-05-21T05:38:28.834Z,62.41
2023-05-21T05:39:28.860Z,62.66
2023-05-21T05:40:28.652Z,62.01
2023-05-21T05:41:27.576Z,61.33
2023-05-21T05:42:28.710Z,61.68
2023-05-21T05:44:46.726Z,61.84
2023-05-21T05:45:46.875Z,61.63
2023-05-21T05:46:47.664Z,61.05
2023-05-21T05:47:46.809Z,60.60
2023-05-21T05:48:47.611Z,60.08
2023-05-21T05:49:46.544Z,61.33
2023-05-21T05:50:46.626Z,61.36
2023-05-21T05:51:46.558Z,60.72
2023-05-21T05:52:46.746Z,60.55
2023-05-21T05:53:46.551Z,61.42
2023-05-21T05:54:46.549Z,60.88
2023-05-21T05:55:46.563Z,60.17
2023-05-21T05:56:46.710Z,59.74
2023-05-21T05:57:46.502Z,60.46
2023-05-21T05:58:46.783Z,59.52
2023-05-21T05:59:46.516Z,59.00
2023-05-21T06:00:46.801Z,58.67
2023-05-21T06:01:46.637Z,58.29
2023-05-21T06:02:47.762Z,58.18
2023-05-21T06:03:46.797Z,57.95
2023-05-21T06:04:46.664Z,58.25
2023-05-21T06:05:46.776Z,57.92
2023-05-21T06:06:46.659Z,57.60
2023-05-21T06:10:25.325Z,58.78
2023-05-21T06:11:26.032Z,58.75
2023-05-21T06:14:59.058Z,57.79
2023-05-21T06:15:59.111Z,57.61
2023-05-21T06:17:00.142Z,56.98
2023-05-21T06:17:58.836Z,57.45
2023-05-21T06:20:18.530Z,58.82
2023-05-21T06:21:19.223Z,58.97
2023-05-21T06:22:19.368Z,57.56
2023-05-21T06:23:19.137Z,57.77
2023-05-21T06:24:19.128Z,57.81
2023-05-21T06:26:37.637Z,57.93
2023-05-21T06:27:38.420Z,58.25
2023-05-21T06:28:38.598Z,58.08
2023-05-21T06:29:38.362Z,57.97
2023-05-21T06:30:37.453Z,58.03
2023-05-21T06:32:57.073Z,58.36
2023-05-21T06:33:57.878Z,57.65
2023-05-21T06:34:57.996Z,57.68
2023-05-21T06:35:56.725Z,57.86
2023-05-21T06:36:57.653Z,56.79
2023-05-21T06:37:56.716Z,56.92
2023-05-21T06:38:56.659Z,57.10
2023-05-21T06:39:57.654Z,57.12
2023-05-21T06:40:57.763Z,56.94
2023-05-21T06:41:56.689Z,57.84
2023-05-21T06:42:56.656Z,55.81
2023-05-21T06:43:56.624Z,56.61
2023-05-21T06:44:56.802Z,57.00
2023-05-21T06:45:57.741Z,57.88
2023-05-21T06:46:56.628Z,56.60
2023-05-21T06:47:57.814Z,56.24
2023-05-21T06:48:57.660Z,55.80
2023-05-21T06:49:56.601Z,55.27
2023-05-21T06:50:56.559Z,55.81
2023-05-21T06:53:16.141Z,56.99
2023-05-21T06:54:17.192Z,56.70
2023-05-21T06:55:16.910Z,56.18
2023-05-21T06:56:16.907Z,56.18
2023-05-21T06:57:16.948Z,56.33
2023-05-21T06:58:16.903Z,56.55
2023-05-21T07:00:35.695Z,56.19
2023-05-21T07:05:34.121Z,55.83
2023-05-21T07:06:34.161Z,54.85
2023-05-21T07:07:49.688Z,53.21
2023-05-21T07:11:23.271Z,53.36
2023-05-21T07:12:24.117Z,52.60
2023-05-21T07:13:23.228Z,52.32
2023-05-21T07:14:22.980Z,51.41
2023-05-21T07:15:23.923Z,51.00
2023-05-21T07:16:23.010Z,51.17
2023-05-21T07:17:22.928Z,50.55
2023-05-21T07:18:23.001Z,50.61
2023-05-21T07:19:23.984Z,50.45
2023-05-21T07:20:23.973Z,50.59
2023-05-21T07:21:22.905Z,50.22
2023-05-21T07:23:42.548Z,50.69
2023-05-21T07:24:42.304Z,50.89
2023-05-21T07:25:42.454Z,51.59
2023-05-21T07:26:43.256Z,52.24
2023-05-21T07:27:43.247Z,52.19
2023-05-21T07:28:42.294Z,52.01
2023-05-21T07:29:43.196Z,52.39
2023-05-21T07:30:42.249Z,52.24
2023-05-21T07:31:42.278Z,52.48
2023-05-21T07:32:43.348Z,52.10
2023-05-21T07:33:43.222Z,51.99
2023-05-21T07:34:42.155Z,51.80
2023-05-21T07:37:26.315Z,51.54
2023-05-21T07:38:27.067Z,51.65
2023-05-21T07:39:27.309Z,52.49
2023-05-21T07:40:27.014Z,52.43
2023-05-21T07:42:45.177Z,51.11
2023-05-21T07:43:46.224Z,51.15
2023-05-21T07:44:44.898Z,51.85
2023-05-21T07:45:45.951Z,51.67
2023-05-21T07:46:46.036Z,50.91
2023-05-21T07:47:46.026Z,50.48
2023-05-21T07:48:44.855Z,50.11
2023-05-21T07:51:23.161Z,51.08
2023-05-21T07:52:22.939Z,50.43
2023-05-21T07:53:23.956Z,49.74
2023-05-21T07:54:22.738Z,49.43
2023-05-21T07:55:23.819Z,49.27
2023-05-21T07:56:23.768Z,49.42
2023-05-21T07:57:22.923Z,49.28
2023-05-21T07:58:23.903Z,49.23
2023-05-21T07:59:22.783Z,50.59
2023-05-21T08:00:22.713Z,50.33
2023-05-21T08:01:22.677Z,49.59
2023-05-21T08:03:42.415Z,51.88
2023-05-21T08:04:42.195Z,51.39
2023-05-21T08:05:42.332Z,51.04
2023-05-21T08:06:43.087Z,51.00
2023-05-21T08:07:43.060Z,50.26
2023-05-21T08:08:41.989Z,50.04
2023-05-21T08:09:42.188Z,50.14
2023-05-21T08:10:43.102Z,50.02
2023-05-21T08:13:00.875Z,50.16
2023-05-21T08:15:20.248Z,49.76
2023-05-21T08:16:20.448Z,50.47
2023-05-21T08:17:21.225Z,50.23
2023-05-21T08:18:21.183Z,50.34
2023-05-21T08:19:20.202Z,49.77
2023-05-21T08:20:20.128Z,49.42
2023-05-21T08:21:21.231Z,49.44
2023-05-21T08:22:21.121Z,48.42
2023-05-21T08:23:21.364Z,47.83
2023-05-21T08:24:21.321Z,47.70
2023-05-21T08:25:21.317Z,47.47
2023-05-21T08:26:20.116Z,47.57
2023-05-21T08:27:20.087Z,47.35
2023-05-21T08:30:58.242Z,45.02
2023-05-21T08:31:58.446Z,46.18
2023-05-21T08:32:59.232Z,46.40
2023-05-21T08:33:58.213Z,46.43
2023-05-21T08:34:58.364Z,46.78
2023-05-21T08:35:59.348Z,46.49
2023-05-21T08:36:58.258Z,45.92
2023-05-21T08:37:58.345Z,45.25
2023-05-21T08:38:59.109Z,44.89
2023-05-21T08:39:58.192Z,45.07
2023-05-21T08:40:58.115Z,44.72
2023-05-21T08:41:59.128Z,44.95
2023-05-21T08:42:58.215Z,44.68
2023-05-21T08:43:58.212Z,44.85
2023-05-21T08:44:58.216Z,44.45
2023-05-21T08:47:24.296Z,43.48
2023-05-21T08:48:25.092Z,43.84
2023-05-21T08:49:25.726Z,43.70
2023-05-21T08:50:25.051Z,43.60
2023-05-21T08:51:23.939Z,43.40
2023-05-21T08:52:23.975Z,42.30
2023-05-21T08:53:28.635Z,41.23
2023-05-21T08:54:24.916Z,41.68
2023-05-21T08:55:25.885Z,41.59
2023-05-21T08:56:24.995Z,39.66
2023-05-21T08:57:25.003Z,39.31
2023-05-21T08:58:23.884Z,36.36
2023-05-21T08:59:24.885Z,36.94
2023-05-21T09:00:24.968Z,37.70
2023-05-21T09:01:26.438Z,37.69
2023-05-21T09:04:01.712Z,39.19
2023-05-21T09:04:56.595Z,36.50
2023-05-21T09:05:55.242Z,36.82
2023-05-21T09:06:55.212Z,36.87
2023-05-21T09:16:30.681Z,37.23
2023-05-21T09:17:30.496Z,38.22
2023-05-21T09:18:30.604Z,37.52
2023-05-21T09:20:49.755Z,38.34
2023-05-21T09:21:50.647Z,38.55
2023-05-21T09:22:50.761Z,38.72
2023-05-21T09:29:31.998Z,36.76
2023-05-21T09:32:25.239Z,37.96
2023-05-21T09:33:25.173Z,37.88
2023-05-21T09:34:26.127Z,37.85
2023-05-21T09:35:24.938Z,38.01
2023-05-21T09:36:25.941Z,37.85
2023-05-21T09:37:27.469Z,37.22
2023-05-21T09:43:14.758Z,35.09
2023-05-21T09:46:53.183Z,35.40
2023-05-21T09:47:52.913Z,34.73
2023-05-21T09:48:53.069Z,35.69
2023-05-21T09:49:53.884Z,35.49
2023-05-21T09:50:52.900Z,35.70
2023-05-21T09:51:53.851Z,35.07
2023-05-21T09:52:54.032Z,36.00
2023-05-21T09:53:52.804Z,35.81
2023-05-21T09:54:54.079Z,35.62
2023-05-21T09:55:52.772Z,35.00
2023-05-21T09:56:53.789Z,34.89
2023-05-21T09:57:52.772Z,34.92
2023-05-21T09:58:52.780Z,34.18
2023-05-21T09:59:53.954Z,34.07
2023-05-21T10:00:53.737Z,33.11
2023-05-21T10:01:52.894Z,33.62
2023-05-21T10:02:53.995Z,33.74
2023-05-21T10:03:52.738Z,32.63
2023-05-21T10:04:54.132Z,32.95
2023-05-21T10:05:52.722Z,32.72
2023-05-21T10:06:53.796Z,32.56
2023-05-21T10:07:52.806Z,32.55
2023-05-21T10:08:52.994Z,32.95
2023-05-21T10:09:53.674Z,32.51
2023-05-21T10:10:53.752Z,32.27
2023-05-21T10:11:53.757Z,31.90
2023-05-21T10:12:53.817Z,31.26
2023-05-21T10:13:52.652Z,30.77
2023-05-21T10:14:52.697Z,30.83
2023-05-21T10:15:53.680Z,31.15
2023-05-21T10:16:53.639Z,31.21
2023-05-21T10:17:53.922Z,31.24
2023-05-21T10:18:53.652Z,31.21
2023-05-21T10:19:52.624Z,31.57
2023-05-21T10:22:11.688Z,31.84
2023-05-21T10:24:31.259Z,31.72
2023-05-21T10:25:31.378Z,32.13
2023-05-21T10:26:31.198Z,32.41
2023-05-21T10:27:32.445Z,32.14
2023-05-21T10:28:31.264Z,32.71
2023-05-21T10:29:32.257Z,31.86
2023-05-21T10:30:31.166Z,31.22
2023-05-21T10:31:32.300Z,30.29
2023-05-21T10:32:31.182Z,31.03
2023-05-21T10:33:32.288Z,31.56
2023-05-21T10:34:31.165Z,32.33
2023-05-21T10:37:22.398Z,30.89
2023-05-21T10:38:22.339Z,30.55
2023-05-21T10:39:22.252Z,29.80
2023-05-21T10:40:22.259Z,29.99
2023-05-21T10:41:22.043Z,30.30
2023-05-21T10:42:22.049Z,31.37
2023-05-21T10:44:41.296Z,31.81
2023-05-21T10:45:42.218Z,31.34
2023-05-21T10:46:42.277Z,31.28
2023-05-21T10:47:41.022Z,31.36
2023-05-21T10:48:41.045Z,31.45
2023-05-21T10:51:00.345Z,32.24
2023-05-21T10:52:01.204Z,31.16
2023-05-21T10:53:00.346Z,30.55
2023-05-21T10:55:19.550Z,30.72
2023-05-21T10:56:19.634Z,30.95
2023-05-21T10:57:19.385Z,30.48
2023-05-21T10:58:20.339Z,31.93
2023-05-21T10:59:20.370Z,31.37
2023-05-21T11:00:19.311Z,31.61
2023-05-21T11:01:19.474Z,29.58
2023-05-21T11:02:20.460Z,30.24
2023-05-21T11:03:20.468Z,30.35
2023-05-21T11:04:20.343Z,29.88
2023-05-21T11:05:20.311Z,30.26
2023-05-21T11:06:19.266Z,30.55
2023-05-21T11:07:20.354Z,29.28
2023-05-21T11:08:19.352Z,28.09
2023-05-21T11:09:19.397Z,29.33
2023-05-21T11:10:19.329Z,30.66
2023-05-21T11:11:19.453Z,31.13
2023-05-21T11:12:19.261Z,32.97
2023-05-21T11:13:20.256Z,32.65
2023-05-21T11:14:20.873Z,32.20
2023-05-21T11:15:19.202Z,32.21
2023-05-21T11:16:20.260Z,32.15
2023-05-21T11:17:19.234Z,32.62
2023-05-21T11:18:20.188Z,32.36
2023-05-21T11:19:20.250Z,32.74
2023-05-21T11:20:20.208Z,32.62
2023-05-21T11:21:19.172Z,32.61
2023-05-21T11:22:20.193Z,32.14
2023-05-21T11:23:19.165Z,33.36
2023-05-21T11:24:20.159Z,34.91
2023-05-21T11:25:19.215Z,34.96
2023-05-21T11:26:20.253Z,34.01
2023-05-21T11:27:19.152Z,35.80
2023-05-21T11:28:20.147Z,35.65
2023-05-21T11:29:20.160Z,34.20
2023-05-21T11:30:19.139Z,32.72
2023-05-21T11:31:19.254Z,31.85
2023-05-21T11:35:07.688Z,28.92
2023-05-21T11:36:07.729Z,28.02
2023-05-21T11:37:08.499Z,27.85
2023-05-21T11:39:26.546Z,29.20
2023-05-21T11:40:26.593Z,28.14
2023-05-21T11:41:26.416Z,27.57
2023-05-21T11:42:26.243Z,27.21
2023-05-21T11:43:26.277Z,27.72
2023-05-21T11:44:26.321Z,26.88
2023-05-21T11:45:26.478Z,26.82
2023-05-21T11:46:27.270Z,26.19
2023-05-21T11:47:26.370Z,25.96
2023-05-21T11:48:27.373Z,25.90
2023-05-21T11:49:27.144Z,26.05
2023-05-21T11:50:27.224Z,25.48
2023-05-21T11:51:27.180Z,25.87
2023-05-21T11:52:27.129Z,25.25
2023-05-21T11:53:26.134Z,25.13
2023-05-21T11:54:27.138Z,25.16
2023-05-21T12:01:19.632Z,25.08
2023-05-21T12:02:20.554Z,25.84
2023-05-21T12:03:20.812Z,25.35
2023-05-21T12:04:20.467Z,25.41
2023-05-21T12:05:19.563Z,25.98
2023-05-21T12:06:19.422Z,26.16
2023-05-21T12:07:19.390Z,25.44
2023-05-21T12:08:19.427Z,25.41
2023-05-21T12:09:20.392Z,24.47
2023-05-21T12:10:20.439Z,24.88
2023-05-21T12:11:20.366Z,24.21
2023-05-21T12:12:19.444Z,23.96
2023-05-21T12:13:20.291Z,24.46
2023-05-21T12:14:19.387Z,24.40
2023-05-21T12:15:19.281Z,24.19
2023-05-21T12:16:19.370Z,24.20
2023-05-21T12:17:19.447Z,24.21
2023-05-21T12:18:19.238Z,22.43
2023-05-21T12:19:20.340Z,21.54
2023-05-21T12:20:20.539Z,21.70
2023-05-21T12:21:19.709Z,21.44
2023-05-21T12:22:19.499Z,22.44
2023-05-21T12:23:19.433Z,24.92
2023-05-21T12:24:20.541Z,30.68
2023-05-21T12:25:20.946Z,29.49
2023-05-21T12:26:19.609Z,28.72
2023-05-21T12:27:19.619Z,27.76
2023-05-21T12:28:19.653Z,26.47
2023-05-21T12:29:19.802Z,27.01
2023-05-21T12:30:19.723Z,26.52
2023-05-21T12:31:20.626Z,24.94
2023-05-21T12:32:20.746Z,24.45
2023-05-21T12:33:19.712Z,24.78
2023-05-21T12:34:19.822Z,26.63
2023-05-21T12:35:19.977Z,25.02
2023-05-21T12:36:19.805Z,25.71
2023-05-21T12:37:20.751Z,26.29
2023-05-21T12:38:19.985Z,27.32
2023-05-21T12:43:48.088Z,23.39
2023-05-21T12:46:06.639Z,25.79
2023-05-21T12:47:07.722Z,27.12
2023-05-21T12:48:06.546Z,26.33
2023-05-21T12:49:06.492Z,27.03
2023-05-21T12:50:06.451Z,26.35
2023-05-21T12:52:25.695Z,23.43
2023-05-21T12:53:26.408Z,22.84
2023-05-21T12:54:25.606Z,22.22
2023-05-21T12:55:25.533Z,21.51
2023-05-21T12:56:25.365Z,21.88
2023-05-21T13:05:40.998Z,21.23
2023-05-21T13:06:40.766Z,21.47
2023-05-21T13:07:40.971Z,20.85
2023-05-21T13:08:41.753Z,21.09
2023-05-21T13:09:40.768Z,20.89
2023-05-21T13:10:40.759Z,21.99
2023-05-21T13:11:41.742Z,21.34
2023-05-21T13:12:42.201Z,21.45
2023-05-21T13:13:40.620Z,21.11
2023-05-21T13:14:40.843Z,21.64
2023-05-21T13:15:41.869Z,21.55
2023-05-21T13:16:41.569Z,21.49
2023-05-21T13:17:40.700Z,22.53
2023-05-21T13:18:40.662Z,22.06
2023-05-21T13:19:41.568Z,22.19
2023-05-21T13:20:40.585Z,22.64
2023-05-21T13:21:41.005Z,22.61
2023-05-21T13:23:59.588Z,23.06
2023-05-21T13:24:59.553Z,22.92
2023-05-21T13:25:59.286Z,23.05
2023-05-21T13:27:00.371Z,23.10
2023-05-21T13:27:59.259Z,23.66
2023-05-21T13:28:59.271Z,23.98
2023-05-21T13:31:18.616Z,25.43
2023-05-21T13:33:40.101Z,25.29
2023-05-21T13:34:39.867Z,23.55
2023-05-21T13:35:39.732Z,23.45
2023-05-21T13:36:40.698Z,24.00
2023-05-21T13:37:40.952Z,24.84
2023-05-21T13:38:39.773Z,25.09
2023-05-21T13:39:39.673Z,24.80
2023-05-21T13:40:40.989Z,23.62
2023-05-21T13:41:39.680Z,23.84
2023-05-21T13:42:39.744Z,22.72
2023-05-21T13:43:40.704Z,22.23
2023-05-21T13:44:40.639Z,22.95
2023-05-21T13:45:39.653Z,22.62
2023-05-21T13:46:39.744Z,22.25
2023-05-21T13:47:40.592Z,22.63
2023-05-21T13:48:39.699Z,24.75
2023-05-21T13:49:39.668Z,26.34
2023-05-21T13:50:39.645Z,26.05
2023-05-21T13:51:40.595Z,25.96
2023-05-21T13:52:40.573Z,25.89
2023-05-21T13:53:40.593Z,26.32
2023-05-21T13:54:39.608Z,25.88
2023-05-21T13:55:39.660Z,26.55
2023-05-21T13:58:05.956Z,23.83
2023-05-21T13:59:05.733Z,23.21
2023-05-21T14:00:06.868Z,22.94
2023-05-21T14:01:06.983Z,22.60
2023-05-21T14:02:06.659Z,22.05
2023-05-21T14:03:05.672Z,24.48
2023-05-21T14:04:05.728Z,23.70
2023-05-21T14:05:05.667Z,24.11
2023-05-21T14:07:25.143Z,22.46
2023-05-21T14:08:24.831Z,22.83
2023-05-21T14:09:25.061Z,23.45
2023-05-21T14:10:25.842Z,23.81
2023-05-21T14:11:24.844Z,26.00
2023-05-21T14:12:25.705Z,27.66
2023-05-21T14:13:24.732Z,26.95
2023-05-21T14:14:25.796Z,26.15
2023-05-21T14:15:24.781Z,25.60
2023-05-21T14:16:24.767Z,25.94
2023-05-21T14:17:24.717Z,25.95
2023-05-21T14:18:24.661Z,25.05
2023-05-21T14:19:24.755Z,24.55
2023-05-21T14:20:25.733Z,24.34
2023-05-21T14:21:25.637Z,23.51
2023-05-21T14:22:24.761Z,22.43
2023-05-21T14:23:24.664Z,24.70
2023-05-21T14:24:24.616Z,25.29
2023-05-21T14:25:24.639Z,25.29
2023-05-21T14:26:25.645Z,24.40
2023-05-21T14:28:43.962Z,23.98
2023-05-21T14:29:44.076Z,25.06
2023-05-21T14:35:19.841Z,28.11
2023-05-21T14:36:19.995Z,30.11
2023-05-21T14:37:19.731Z,30.76
2023-05-21T14:38:19.732Z,31.52
2023-05-21T14:39:20.777Z,31.13
2023-05-21T14:40:20.868Z,31.71
2023-05-21T14:41:19.722Z,32.71
2023-05-21T14:42:19.738Z,34.74
2023-05-21T15:01:01.142Z,22.06
2023-05-21T15:02:00.965Z,21.89
2023-05-21T15:04:50.543Z,20.42
2023-05-21T15:05:50.388Z,21.32
2023-05-21T15:06:51.555Z,21.27
2023-05-21T15:07:50.334Z,21.75
2023-05-21T15:08:50.254Z,21.91
2023-05-21T15:09:50.301Z,21.68
2023-05-21T15:10:50.257Z,22.80
2023-05-21T15:11:51.280Z,22.14
2023-05-21T15:12:51.299Z,21.23
2023-05-21T15:13:51.459Z,21.68
2023-05-21T15:14:51.273Z,20.86
2023-05-21T15:15:50.386Z,20.57
2023-05-21T15:16:51.416Z,20.82
2023-05-21T15:17:50.319Z,20.99
2023-05-21T15:18:51.253Z,20.99
2023-05-21T15:19:50.170Z,20.50
2023-05-21T15:20:50.321Z,20.79
2023-05-21T15:21:51.187Z,20.70
2023-05-21T15:22:52.350Z,19.21
2023-05-21T15:25:09.513Z,18.66
2023-05-21T15:26:09.417Z,18.87
2023-05-21T15:27:10.467Z,18.96
2023-05-21T15:28:09.233Z,18.70
2023-05-21T15:29:09.180Z,19.42
2023-05-21T15:31:28.072Z,19.00
2023-05-21T15:32:28.975Z,18.55
2023-05-21T15:33:27.859Z,19.14
2023-05-21T15:34:29.093Z,18.87
2023-05-21T15:35:28.947Z,19.50
2023-05-21T15:36:27.789Z,19.21
2023-05-21T15:37:28.812Z,19.09
2023-05-21T15:38:27.801Z,18.87
2023-05-21T15:41:17.772Z,18.16
2023-05-21T15:42:17.604Z,18.28
2023-05-21T15:43:18.689Z,18.77
2023-05-21T15:44:18.564Z,19.03
2023-05-21T15:45:17.474Z,19.43
2023-05-21T15:46:18.544Z,19.68
2023-05-21T15:47:17.440Z,19.45
2023-05-21T15:49:36.734Z,20.34
2023-05-21T15:50:37.853Z,19.58
2023-05-21T15:51:37.637Z,19.31
2023-05-21T15:52:36.750Z,18.73
2023-05-21T15:53:36.695Z,18.78
2023-05-21T15:54:37.568Z,18.42
2023-05-21T15:55:38.074Z,19.41
2023-05-21T15:56:36.711Z,19.19
2023-05-21T15:57:37.721Z,19.24
2023-05-21T15:58:36.545Z,18.43
2023-05-21T15:59:37.723Z,19.28
2023-05-21T16:00:36.556Z,18.83
2023-05-21T16:01:36.625Z,19.26
2023-05-21T16:02:37.695Z,18.82
2023-05-21T16:03:37.787Z,18.13
2023-05-21T16:04:36.505Z,18.16
2023-05-21T16:05:36.759Z,18.23
2023-05-21T16:06:36.593Z,18.30
2023-05-21T16:07:38.326Z,17.75
2023-05-21T16:08:37.704Z,17.84
2023-05-21T16:09:37.715Z,17.63
2023-05-21T16:10:36.599Z,17.85
2023-05-21T16:11:36.594Z,18.33
2023-05-21T16:12:37.439Z,18.44
2023-05-21T16:13:36.505Z,18.27
2023-05-21T16:33:09.620Z,18.29
2023-05-21T16:34:10.481Z,17.60
2023-05-21T16:35:10.535Z,17.61
2023-05-21T16:36:09.366Z,17.83
2023-05-21T16:37:10.434Z,18.93
2023-05-21T16:38:09.371Z,18.28
2023-05-21T16:40:35.112Z,17.74
2023-05-21T16:41:35.026Z,17.90
2023-05-21T16:42:35.127Z,17.83
2023-05-21T16:43:35.107Z,17.30
2023-05-21T16:44:34.895Z,18.01
2023-05-21T16:45:35.139Z,17.25
2023-05-21T16:46:36.216Z,17.28
2023-05-21T16:47:35.064Z,17.56
2023-05-21T16:48:37.350Z,17.09
2023-05-21T16:49:34.857Z,17.52
2023-05-21T16:50:36.029Z,17.38
2023-05-21T16:51:34.848Z,17.68